Time,TemperatureF,DewpointF,PressureIn,WindDirection,WindDirectionDegrees,WindSpeedMPH,WindSpeedGustMPH,Humidity,HourlyPrecipIn,Conditions,Clouds,dailyrainin,SoftwareType,DateUTC
2013-09-17 00:13:00,72.3,63.5,30.05,South,180,0.0,-999.0,74,-99.99,,,0.00,Acu-Link.com,2013-09-17 04:13:00,
2013-09-17 00:28:00,72.3,63.1,30.05,SSW,202,0.0,-999.0,73,-99.99,,,0.00,Acu-Link.com,2013-09-17 04:28:00,
2013-09-17 00:44:00,72.3,63.9,30.06,ESE,112,0.0,-999.0,75,-99.99,,,0.00,Acu-Link.com,2013-09-17 04:44:00,
2013-09-17 00:59:00,72.3,62.8,30.05,SE,135,0.0,-999.0,72,-99.99,,,0.00,Acu-Link.com,2013-09-17 04:59:00,
2013-09-17 01:14:00,72.5,62.5,30.05,South,180,0.0,-999.0,71,-99.99,,,0.00,Acu-Link.com,2013-09-17 05:14:00,
2013-09-17 01:29:00,72.5,62.5,30.05,South,180,0.0,-999.0,71,-99.99,,,0.00,Acu-Link.com,2013-09-17 05:29:00,
2013-09-17 01:44:00,72.5,62.1,30.06,West,270,0.0,-999.0,70,-99.99,,,0.00,Acu-Link.com,2013-09-17 05:44:00,
2013-09-17 01:59:00,72.5,62.1,30.06,North,0,0.0,-999.0,70,-99.99,,,0.00,Acu-Link.com,2013-09-17 05:59:00,
2013-09-17 02:15:00,72.5,62.1,30.06,WSW,247,0.0,-999.0,70,-99.99,,,0.00,Acu-Link.com,2013-09-17 06:15:00,
2013-09-17 02:30:00,72.3,62.4,30.06,ENE,67,0.0,-999.0,71,-99.99,,,0.00,Acu-Link.com,2013-09-17 06:30:00,
2013-09-17 02:45:00,72.1,62.6,30.06,NW,315,1.7,-999.0,72,-99.99,,,0.00,Acu-Link.com,2013-09-17 06:45:00,
2013-09-17 03:00:00,72.0,62.5,30.06,SSE,157,0.0,-999.0,72,-99.99,,,0.00,Acu-Link.com,2013-09-17 07:00:00,
2013-09-17 03:15:00,71.6,62.1,30.06,NNE,22,0.0,-999.0,72,-99.99,,,0.00,Acu-Link.com,2013-09-17 07:15:00,
2013-09-17 03:30:00,71.2,62.5,30.06,ENE,67,0.0,-999.0,74,-99.99,,,0.00,Acu-Link.com,2013-09-17 07:30:00,
2013-09-17 03:45:00,70.9,62.2,30.06,SSW,202,0.0,-999.0,74,-99.99,,,0.00,Acu-Link.com,2013-09-17 07:45:00,
2013-09-17 04:00:00,70.5,61.8,30.06,SE,135,1.1,-999.0,74,-99.99,,,0.00,Acu-Link.com,2013-09-17 08:00:00,
2013-09-17 04:15:00,70.3,61.6,30.06,NE,45,0.0,-999.0,74,-99.99,,,0.00,Acu-Link.com,2013-09-17 08:15:00,
2013-09-17 04:31:00,70.0,61.3,30.06,ESE,112,1.1,-999.0,74,-99.99,,,0.00,Acu-Link.com,2013-09-17 08:31:00,
2013-09-17 04:46:00,69.6,60.6,30.07,NE,45,0.0,-999.0,73,-99.99,,,0.00,Acu-Link.com,2013-09-17 08:46:00,
2013-09-17 05:01:00,69.3,60.6,30.07,SSE,157,0.0,-999.0,74,-99.99,,,0.00,Acu-Link.com,2013-09-17 09:01:00,
2013-09-17 05:16:00,68.9,59.9,30.08,West,270,1.7,-999.0,73,-99.99,,,0.00,Acu-Link.com,2013-09-17 09:16:00,
2013-09-17 05:31:00,68.7,60.1,30.09,WNW,292,0.0,-999.0,74,-99.99,,,0.00,Acu-Link.com,2013-09-17 09:31:00,
2013-09-17 05:46:00,68.4,59.4,30.09,SSE,157,0.0,-999.0,73,-99.99,,,0.00,Acu-Link.com,2013-09-17 09:46:00,
2013-09-17 06:01:00,67.8,59.2,30.09,NE,45,0.0,-999.0,74,-99.99,,,0.00,Acu-Link.com,2013-09-17 10:01:00,
2013-09-17 06:16:00,67.6,59.4,30.09,South,180,1.7,-999.0,75,-99.99,,,0.00,Acu-Link.com,2013-09-17 10:16:00,
2013-09-17 06:31:00,67.3,59.5,30.10,ENE,67,1.7,-999.0,76,-99.99,,,0.00,Acu-Link.com,2013-09-17 10:31:00,
2013-09-17 06:47:00,67.3,60.2,30.11,South,180,0.0,-999.0,78,-99.99,,,0.00,Acu-Link.com,2013-09-17 10:47:00,
2013-09-17 07:02:00,67.3,59.8,30.11,West,270,2.2,-999.0,77,-99.99,,,0.00,Acu-Link.com,2013-09-17 11:02:00,
2013-09-17 07:17:00,67.1,60.0,30.12,East,90,2.2,-999.0,78,-99.99,,,0.00,Acu-Link.com,2013-09-17 11:17:00,
2013-09-17 07:32:00,67.1,59.6,30.12,SSE,157,1.1,-999.0,77,-99.99,,,0.00,Acu-Link.com,2013-09-17 11:32:00,
2013-09-17 07:47:00,67.1,60.0,30.13,NNW,337,0.0,-999.0,78,-99.99,,,0.00,Acu-Link.com,2013-09-17 11:47:00,
2013-09-17 08:02:00,66.9,59.1,30.13,SE,135,2.2,-999.0,76,-99.99,,,0.00,Acu-Link.com,2013-09-17 12:02:00,
2013-09-17 08:17:00,67.1,59.3,30.14,SSW,202,1.7,-999.0,76,-99.99,,,0.00,Acu-Link.com,2013-09-17 12:17:00,
2013-09-17 08:33:00,67.3,59.1,30.15,ESE,112,1.7,-999.0,75,-99.99,,,0.00,Acu-Link.com,2013-09-17 12:33:00,
2013-09-17 08:48:00,67.5,59.3,30.15,South,180,1.7,-999.0,75,-99.99,,,0.00,Acu-Link.com,2013-09-17 12:48:00,
2013-09-17 09:03:00,67.6,59.0,30.16,ESE,112,2.2,-999.0,74,-99.99,,,0.00,Acu-Link.com,2013-09-17 13:03:00,
2013-09-17 09:18:00,67.8,59.2,30.16,South,180,3.7,-999.0,74,-99.99,,,0.00,Acu-Link.com,2013-09-17 13:18:00,
2013-09-17 09:33:00,67.8,58.0,30.16,East,90,1.7,-999.0,71,-99.99,,,0.00,Acu-Link.com,2013-09-17 13:33:00,
2013-09-17 09:48:00,67.8,58.0,30.17,ENE,67,0.0,-999.0,71,-99.99,,,0.00,Acu-Link.com,2013-09-17 13:48:00,
2013-09-17 10:04:00,68.2,58.4,30.17,ESE,112,0.0,-999.0,71,-99.99,,,0.00,Acu-Link.com,2013-09-17 14:04:00,
2013-09-17 10:19:00,68.5,57.9,30.18,NW,315,2.7,-999.0,69,-99.99,,,0.00,Acu-Link.com,2013-09-17 14:19:00,
2013-09-17 10:34:00,68.5,57.1,30.19,East,90,4.7,-999.0,67,-99.99,,,0.00,Acu-Link.com,2013-09-17 14:34:00,
2013-09-17 10:49:00,68.7,58.9,30.19,NNW,337,2.7,-999.0,71,-99.99,,,0.00,Acu-Link.com,2013-09-17 14:49:00,
2013-09-17 11:04:00,68.9,58.7,30.19,SE,135,1.7,-999.0,70,-99.99,,,0.00,Acu-Link.com,2013-09-17 15:04:00,
2013-09-17 11:19:00,69.4,59.2,30.19,NNW,337,2.2,-999.0,70,-99.99,,,0.00,Acu-Link.com,2013-09-17 15:19:00,
2013-09-17 11:34:00,69.8,58.8,30.19,South,180,1.7,-999.0,68,-99.99,,,0.00,Acu-Link.com,2013-09-17 15:34:00,
2013-09-17 11:49:00,69.8,57.9,30.19,West,270,2.2,-999.0,66,-99.99,,,0.00,Acu-Link.com,2013-09-17 15:49:00,
2013-09-17 12:04:00,70.2,58.7,30.19,ENE,67,3.2,-999.0,67,-99.99,,,0.00,Acu-Link.com,2013-09-17 16:04:00,
2013-09-17 12:20:00,70.0,58.1,30.18,NNW,337,0.0,-999.0,66,-99.99,,,0.00,Acu-Link.com,2013-09-17 16:20:00,
2013-09-17 12:35:00,70.0,58.1,30.18,ESE,112,2.7,-999.0,66,-99.99,,,0.00,Acu-Link.com,2013-09-17 16:35:00,
2013-09-17 12:50:00,70.2,59.1,30.17,SSW,202,0.0,-999.0,68,-99.99,,,0.00,Acu-Link.com,2013-09-17 16:50:00,
2013-09-17 13:05:00,71.2,59.2,30.17,NW,315,3.2,-999.0,66,-99.99,,,0.00,Acu-Link.com,2013-09-17 17:05:00,
2013-09-17 13:20:00,71.6,60.5,30.16,North,0,3.2,-999.0,68,-99.99,,,0.00,Acu-Link.com,2013-09-17 17:20:00,
2013-09-17 13:35:00,72.7,59.8,30.15,NW,315,2.2,-999.0,64,-99.99,,,0.00,Acu-Link.com,2013-09-17 17:35:00,
2013-09-17 13:50:00,73.2,59.4,30.15,South,180,1.7,-999.0,62,-99.99,,,0.00,Acu-Link.com,2013-09-17 17:50:00,
2013-09-17 14:05:00,73.8,60.0,30.15,WNW,292,3.2,-999.0,62,-99.99,,,0.00,Acu-Link.com,2013-09-17 18:05:00,
2013-09-17 14:20:00,73.0,60.1,30.14,SE,135,0.0,-999.0,64,-99.99,,,0.00,Acu-Link.com,2013-09-17 18:20:00,
2013-09-17 14:36:00,73.2,60.7,30.14,South,180,0.0,-999.0,65,-99.99,,,0.00,Acu-Link.com,2013-09-17 18:36:00,
2013-09-17 14:51:00,73.0,61.0,30.13,East,90,1.1,-999.0,66,-99.99,,,0.00,Acu-Link.com,2013-09-17 18:51:00,
2013-09-17 15:06:00,73.4,60.5,30.13,NNW,337,2.2,-999.0,64,-99.99,,,0.00,Acu-Link.com,2013-09-17 19:06:00,
2013-09-17 15:21:00,74.1,60.2,30.12,WSW,247,0.0,-999.0,62,-99.99,,,0.00,Acu-Link.com,2013-09-17 19:21:00,
2013-09-17 15:36:00,74.5,60.6,30.11,WSW,247,2.2,-999.0,62,-99.99,,,0.00,Acu-Link.com,2013-09-17 19:36:00,
2013-09-17 15:51:00,74.3,60.0,30.11,SSE,157,1.1,-999.0,61,-99.99,,,0.00,Acu-Link.com,2013-09-17 19:51:00,
2013-09-17 16:06:00,75.0,60.2,30.10,NNE,22,1.7,-999.0,60,-99.99,,,0.00,Acu-Link.com,2013-09-17 20:06:00,
2013-09-17 16:21:00,74.8,60.0,30.10,South,180,0.0,-999.0,60,-99.99,,,0.00,Acu-Link.com,2013-09-17 20:21:00,
2013-09-17 16:36:00,74.5,60.2,30.09,West,270,1.1,-999.0,61,-99.99,,,0.00,Acu-Link.com,2013-09-17 20:36:00,
2013-09-17 17:07:00,74.3,61.3,30.09,WNW,292,1.7,-999.0,64,-99.99,,,0.00,Acu-Link.com,2013-09-17 21:07:00,
2013-09-17 17:22:00,74.7,61.3,30.09,West,270,1.7,-999.0,63,-99.99,,,0.00,Acu-Link.com,2013-09-17 21:22:00,
2013-09-17 17:37:00,74.7,61.7,30.09,SW,225,2.2,-999.0,64,-99.99,,,0.00,Acu-Link.com,2013-09-17 21:37:00,
2013-09-17 17:52:00,73.9,61.4,30.09,South,180,1.7,-999.0,65,-99.99,,,0.00,Acu-Link.com,2013-09-17 21:52:00,
2013-09-17 18:07:00,73.4,60.5,30.09,ESE,112,3.2,-999.0,64,-99.99,,,0.00,Acu-Link.com,2013-09-17 22:07:00,
2013-09-17 18:22:00,72.7,61.1,30.09,West,270,0.0,-999.0,67,-99.99,,,0.00,Acu-Link.com,2013-09-17 22:22:00,
2013-09-17 18:38:00,72.0,61.3,30.09,SSE,157,0.0,-999.0,69,-99.99,,,0.00,Acu-Link.com,2013-09-17 22:38:00,
2013-09-17 18:53:00,72.0,60.8,30.09,ESE,112,0.0,-999.0,68,-99.99,,,0.00,Acu-Link.com,2013-09-17 22:53:00,
2013-09-17 19:08:00,71.2,60.9,30.08,South,180,0.0,-999.0,70,-99.99,,,0.00,Acu-Link.com,2013-09-17 23:08:00,
2013-09-17 19:23:00,70.7,61.2,30.09,NNE,22,0.0,-999.0,72,-99.99,,,0.00,Acu-Link.com,2013-09-17 23:23:00,
2013-09-17 19:38:00,70.2,62.3,30.08,WNW,292,0.0,-999.0,76,-99.99,,,0.00,Acu-Link.com,2013-09-17 23:38:00,
2013-09-17 19:57:00,69.6,62.1,30.09,SSW,202,0.0,-999.0,77,-99.99,,,0.00,Acu-Link.com,2013-09-17 23:57:00,
2013-09-17 20:13:00,69.1,61.9,30.09,ESE,112,0.0,-999.0,78,-99.99,,,0.00,Acu-Link.com,2013-09-18 00:13:00,
2013-09-17 20:28:00,68.4,62.3,30.09,WNW,292,0.0,-999.0,81,-99.99,,,0.00,Acu-Link.com,2013-09-18 00:28:00,
2013-09-17 20:43:00,67.8,61.7,30.10,NW,315,0.0,-999.0,81,-99.99,,,0.00,Acu-Link.com,2013-09-18 00:43:00,
2013-09-17 20:58:00,67.1,61.8,30.11,NNW,337,0.0,-999.0,83,-99.99,,,0.00,Acu-Link.com,2013-09-18 00:58:00,
2013-09-17 21:13:00,66.9,61.9,30.11,WNW,292,0.0,-999.0,84,-99.99,,,0.00,Acu-Link.com,2013-09-18 01:13:00,
2013-09-17 21:28:00,66.7,61.7,30.12,WNW,292,0.0,-999.0,84,-99.99,,,0.00,Acu-Link.com,2013-09-18 01:28:00,
2013-09-17 21:43:00,66.6,61.6,30.11,WNW,292,0.0,-999.0,84,-99.99,,,0.00,Acu-Link.com,2013-09-18 01:43:00,
2013-09-17 21:58:00,66.4,61.4,30.12,NW,315,0.0,-999.0,84,-99.99,,,0.00,Acu-Link.com,2013-09-18 01:58:00,
2013-09-17 22:13:00,66.2,60.9,30.12,WNW,292,0.0,-999.0,83,-99.99,,,0.00,Acu-Link.com,2013-09-18 02:13:00,
2013-09-17 22:29:00,66.2,60.9,30.12,NNW,337,0.0,-999.0,83,-99.99,,,0.00,Acu-Link.com,2013-09-18 02:29:00,
2013-09-17 22:44:00,66.0,61.0,30.12,WNW,292,0.0,-999.0,84,-99.99,,,0.00,Acu-Link.com,2013-09-18 02:44:00,
2013-09-17 22:59:00,66.0,60.7,30.12,NW,315,0.0,-999.0,83,-99.99,,,0.00,Acu-Link.com,2013-09-18 02:59:00,
2013-09-17 23:14:00,66.0,60.7,30.12,WNW,292,0.0,-999.0,83,-99.99,,,0.00,Acu-Link.com,2013-09-18 03:14:00,
2013-09-17 23:29:00,66.0,60.7,30.13,WNW,292,0.0,-999.0,83,-99.99,,,0.00,Acu-Link.com,2013-09-18 03:29:00,
2013-09-17 23:44:00,65.8,60.5,30.12,NW,315,0.0,-999.0,83,-99.99,,,0.00,Acu-Link.com,2013-09-18 03:44:00,